Time;durP1;ratioP1;P1;durP2;ratioP2;P2;SDS_P1;SDS_P2;PMS_P1;PMS_P2;Temp;Humidity;BMP_temperature;BMP_pressure;BME280_temperature;BME280_humidity;BME280_pressure;Samples;Min_cycle;Max_cycle;Signal;HPM_P1;HPM_P2
2024/04/10 00:00:16;;;;;;;2.70;1.08;;;6.20;99.30;;;;;;2221718;26;20281;-73
2024/04/10 00:01:17;;;;;;;1.80;1.00;;;6.10;99.30;;;;;;2216994;26;20230;-72
2024/04/10 00:02:17;;;;;;;3.27;1.20;;;6.20;99.40;;;;;;2200537;26;20232;-72
2024/04/10 00:03:18;;;;;;;2.83;0.97;;;6.20;99.50;;;;;;2203725;26;20743;-72
2024/04/10 00:04:19;;;;;;;2.65;1.10;;;6.20;99.60;;;;;;2186800;26;20283;-72
2024/04/10 00:05:20;;;;;;;2.97;0.90;;;6.30;99.70;;;;;;2199861;26;20282;-72
2024/04/10 00:06:21;;;;;;;2.43;0.93;;;6.40;99.60;;;;;;2222130;26;20572;-72
2024/04/10 00:07:21;;;;;;;3.40;1.13;;;6.40;99.60;;;;;;2218556;26;20312;-72
2024/04/10 00:08:22;;;;;;;1.87;1.03;;;6.30;99.60;;;;;;2199157;26;20365;-72
2024/04/10 00:09:23;;;;;;;1.93;0.90;;;6.20;99.70;;;;;;2211553;26;20353;-72
2024/04/10 00:10:24;;;;;;;2.57;0.90;;;6.20;99.70;;;;;;2227984;26;20274;-72
2024/04/10 00:11:25;;;;;;;3.58;1.27;;;6.20;99.90;;;;;;2234707;26;20261;-72
2024/04/10 00:12:26;;;;;;;4.47;1.10;;;6.10;99.90;;;;;;2227842;26;20765;-72
2024/04/10 00:13:28;;;;;;;2.38;1.00;;;6.00;99.90;;;;;;2226580;26;20266;-72
2024/04/10 00:14:30;;;;;;;5.38;1.48;;;5.70;99.90;;;;;;2212000;26;20723;-72
2024/04/10 00:15:30;;;;;;;2.40;1.10;;;5.70;99.90;;;;;;2220113;26;20293;-72
2024/04/10 00:16:31;;;;;;;3.87;0.97;;;5.50;99.90;;;;;;2227755;26;20861;-73
2024/04/10 00:17:32;;;;;;;4.83;1.63;;;5.40;99.90;;;;;;2220825;26;20359;-73
2024/04/10 00:18:35;;;;;;;4.00;1.53;;;5.40;99.90;;;;;;2193801;26;20298;-73
2024/04/10 00:19:35;;;;;;;2.97;1.00;;;5.40;99.90;;;;;;2206161;26;20263;-73
2024/04/10 00:20:36;;;;;;;1.80;0.97;;;5.30;99.90;;;;;;2205818;26;20279;-73
2024/04/10 00:21:37;;;;;;;3.00;1.00;;;5.30;99.90;;;;;;2210696;26;20266;-73
2024/04/10 00:22:38;;;;;;;2.40;1.03;;;5.30;99.90;;;;;;2209488;26;20786;-73
2024/04/10 00:23:38;;;;;;;2.10;1.40;;;5.40;99.90;;;;;;2207818;26;20464;-73
2024/04/10 00:24:39;;;;;;;3.23;1.30;;;5.40;99.90;;;;;;2207831;26;20297;-73
2024/04/10 00:25:40;;;;;;;2.13;1.30;;;5.30;99.90;;;;;;2222493;26;20266;-73
2024/04/10 00:26:40;;;;;;;3.73;1.40;;;5.30;99.90;;;;;;2200152;26;20267;-74
2024/04/10 00:27:41;;;;;;;2.67;1.00;;;5.30;99.90;;;;;;2193753;26;20765;-73
2024/04/10 00:28:42;;;;;;;4.87;1.40;;;5.30;99.90;;;;;;2188818;26;20307;-73
2024/04/10 00:29:42;;;;;;;6.00;1.23;;;5.30;99.90;;;;;;2205315;26;20318;-73
2024/04/10 00:30:43;;;;;;;2.43;0.90;;;5.30;99.90;;;;;;2198232;26;20787;-74
2024/04/10 00:31:50;;;;;;;4.80;0.95;;;5.30;99.90;;;;;;2205210;26;20276;-73
2024/04/10 00:32:51;;;;;;;3.10;1.13;;;5.30;99.90;;;;;;2218495;26;20683;-73
2024/04/10 00:33:52;;;;;;;4.13;1.30;;;5.30;99.90;;;;;;2227603;26;20311;-73
2024/04/10 00:34:52;;;;;;;2.10;0.80;;;5.30;99.90;;;;;;2229169;26;20872;-73
2024/04/10 00:35:57;;;;;;;2.37;1.40;;;5.30;99.90;;;;;;2213126;26;20308;-73
2024/04/10 00:36:58;;;;;;;4.05;1.45;;;5.30;99.90;;;;;;2192197;26;20676;-73
2024/04/10 00:37:59;;;;;;;2.57;0.80;;;5.20;99.90;;;;;;2206916;26;20283;-73
2024/04/10 00:38:59;;;;;;;3.03;1.20;;;5.20;99.90;;;;;;2202537;26;20747;-73
2024/04/10 00:40:00;;;;;;;3.13;1.10;;;5.10;99.90;;;;;;2223270;26;20262;-73
2024/04/10 00:41:06;;;;;;;3.60;1.10;;;5.00;99.90;;;;;;2221518;26;20968;-73
2024/04/10 00:42:07;;;;;;;2.70;1.08;;;5.10;99.90;;;;;;2220602;26;20678;-73
2024/04/10 00:43:12;;;;;;;1.27;0.80;;;5.00;99.90;;;;;;2228523;26;20323;-72
2024/04/10 00:44:13;;;;;;;3.58;0.80;;;5.00;99.90;;;;;;2233417;26;20770;-72
2024/04/10 00:45:13;;;;;;;1.90;0.93;;;5.00;99.90;;;;;;2217135;26;20230;-73
2024/04/10 00:46:21;;;;;;;3.10;1.00;;;4.90;99.90;;;;;;2193552;26;20240;-72
2024/04/10 00:47:23;;;;;;;3.40;1.00;;;5.00;99.90;;;;;;2193538;26;20363;-73
2024/04/10 00:48:24;;;;;;;3.88;1.27;;;5.00;99.90;;;;;;2184791;26;20260;-73
2024/04/10 00:49:26;;;;;;;2.10;1.17;;;5.00;99.90;;;;;;2207517;26;20271;-73
2024/04/10 00:50:27;;;;;;;3.53;1.40;;;5.10;99.90;;;;;;2219136;26;20266;-73
2024/04/10 00:51:29;;;;;;;2.05;1.00;;;5.20;99.90;;;;;;2206442;26;21066;-73
2024/04/10 00:52:29;;;;;;;2.90;1.15;;;5.20;99.90;;;;;;2211464;26;20278;-73
2024/04/10 00:53:30;;;;;;;1.57;1.10;;;5.10;99.90;;;;;;2234326;26;20281;-72
2024/04/10 00:54:35;;;;;;;1.40;1.00;;;5.10;99.90;;;;;;2204803;26;20263;-73
2024/04/10 00:55:36;;;;;;;2.97;1.30;;;5.10;99.90;;;;;;2186067;26;20272;-73
2024/04/10 00:56:37;;;;;;;2.30;1.15;;;5.00;99.90;;;;;;2196766;26;20320;-73
2024/04/10 00:57:38;;;;;;;2.97;1.10;;;4.90;99.90;;;;;;2208698;26;20263;-73
2024/04/10 00:58:39;;;;;;;2.17;1.17;;;4.90;99.90;;;;;;2211574;26;21058;-73
2024/04/10 00:59:40;;;;;;;3.35;1.10;;;4.90;99.90;;;;;;2181169;26;20345;-72
2024/04/10 01:00:41;;;;;;;3.60;1.40;;;4.90;99.90;;;;;;2210597;26;20378;-73
2024/04/10 01:01:42;;;;;;;4.23;1.30;;;4.80;99.90;;;;;;2220426;26;20274;-73
2024/04/10 01:02:42;;;;;;;1.67;1.30;;;4.90;99.90;;;;;;2211003;26;20322;-72
2024/04/10 01:03:44;;;;;;;3.23;1.33;;;5.00;99.90;;;;;;2205081;26;20634;-72
2024/04/10 01:04:45;;;;;;;2.80;1.50;;;4.90;99.90;;;;;;2230462;26;20324;-73
2024/04/10 01:05:59;;;;;;;2.47;1.27;;;5.00;99.90;;;;;;2230688;26;20269;-72
2024/04/10 01:07:06;;;;;;;2.97;1.30;;;5.00;99.90;;;;;;2211438;26;20268;-73
2024/04/10 01:08:07;;;;;;;2.25;1.20;;;4.90;99.90;;;;;;2213912;26;20289;-73
2024/04/10 01:09:08;;;;;;;4.43;1.53;;;4.90;99.90;;;;;;2223744;26;20241;-72
2024/04/10 01:10:09;;;;;;;4.38;1.20;;;4.90;99.90;;;;;;2221862;26;21295;-73
2024/04/10 01:11:10;;;;;;;2.50;1.43;;;4.90;99.90;;;;;;2223250;26;20285;-72
2024/04/10 01:12:11;;;;;;;2.45;1.25;;;4.90;99.90;;;;;;2219826;26;20234;-73
2024/04/10 01:13:12;;;;;;;4.13;1.43;;;4.80;99.90;;;;;;2200857;26;20235;-73
2024/04/10 01:14:12;;;;;;;4.27;1.90;;;4.80;99.90;;;;;;2199743;26;20270;-72
2024/04/10 01:15:13;;;;;;;1.60;1.23;;;4.80;99.90;;;;;;2199256;26;20316;-73
2024/04/10 01:16:14;;;;;;;2.20;1.00;;;4.70;99.90;;;;;;2229476;26;20665;-73
2024/04/10 01:17:14;;;;;;;3.03;1.70;;;4.70;99.90;;;;;;2232083;26;20275;-72
2024/04/10 01:18:15;;;;;;;2.90;1.20;;;4.60;99.90;;;;;;2227262;26;20645;-72
2024/04/10 01:19:16;;;;;;;3.57;1.20;;;4.70;99.90;;;;;;2220590;26;20284;-73
2024/04/10 01:20:16;;;;;;;2.27;1.63;;;4.60;99.90;;;;;;2227066;26;20334;-72
2024/04/10 01:21:17;;;;;;;3.00;0.93;;;4.60;99.90;;;;;;2226892;26;20705;-72
2024/04/10 01:22:18;;;;;;;2.23;1.30;;;4.50;99.90;;;;;;2217709;26;20241;-73
2024/04/10 01:23:20;;;;;;;4.47;1.10;;;4.40;99.90;;;;;;2178756;26;20279;-72
2024/04/10 01:24:20;;;;;;;3.17;1.30;;;4.30;99.90;;;;;;2178867;26;20356;-72
2024/04/10 01:25:21;;;;;;;2.97;1.13;;;4.30;99.90;;;;;;2189361;26;21164;-73
2024/04/10 01:26:22;;;;;;;2.77;1.47;;;4.30;99.90;;;;;;2192379;26;20314;-73
2024/04/10 01:27:23;;;;;;;2.37;1.10;;;4.30;99.90;;;;;;2218724;26;20266;-72
2024/04/10 01:28:23;;;;;;;4.20;1.40;;;4.30;99.90;;;;;;2207066;26;20301;-72
2024/04/10 01:29:24;;;;;;;5.03;1.50;;;4.30;99.90;;;;;;2178763;26;20300;-73
2024/04/10 01:30:25;;;;;;;2.70;1.10;;;4.30;99.90;;;;;;2196623;26;20381;-73
2024/04/10 01:31:27;;;;;;;2.77;1.20;;;4.40;99.90;;;;;;2192175;26;20764;-73
2024/04/10 01:32:27;;;;;;;2.70;1.30;;;4.50;99.90;;;;;;2221929;26;20265;-73
2024/04/10 01:33:28;;;;;;;5.80;1.30;;;4.50;99.90;;;;;;2218055;26;20277;-73
2024/04/10 01:34:29;;;;;;;2.20;1.47;;;4.50;99.90;;;;;;2221913;26;20481;-73
2024/04/10 01:35:30;;;;;;;5.40;1.53;;;4.50;99.90;;;;;;2214561;26;20267;-73
2024/04/10 01:36:30;;;;;;;6.57;1.33;;;4.60;99.90;;;;;;2214705;26;20263;-72
2024/04/10 01:37:31;;;;;;;2.63;1.47;;;4.60;99.90;;;;;;2213160;26;20302;-72
2024/04/10 01:38:32;;;;;;;3.03;1.27;;;4.70;99.90;;;;;;2208691;26;20274;-72
2024/04/10 01:39:32;;;;;;;3.30;1.33;;;4.70;99.90;;;;;;2224845;26;20270;-73
2024/04/10 01:40:34;;;;;;;3.17;1.20;;;4.70;99.90;;;;;;2215141;26;20274;-73
2024/04/10 01:41:35;;;;;;;1.95;1.20;;;4.60;99.90;;;;;;2203112;26;20268;-73
2024/04/10 01:42:35;;;;;;;6.53;1.23;;;4.50;99.90;;;;;;2194386;26;20264;-72
2024/04/10 01:43:36;;;;;;;1.77;1.10;;;4.50;99.90;;;;;;2194382;26;20680;-73
2024/04/10 01:44:37;;;;;;;4.30;1.20;;;4.40;99.90;;;;;;2200429;26;20272;-72
2024/04/10 01:45:38;;;;;;;4.23;1.80;;;4.40;99.90;;;;;;2214917;26;20271;-73
2024/04/10 01:46:38;;;;;;;3.00;1.20;;;4.30;99.90;;;;;;2214530;26;20270;-73
2024/04/10 01:47:39;;;;;;;3.20;1.43;;;4.30;99.90;;;;;;2206614;26;20286;-73
2024/04/10 01:48:40;;;;;;;5.53;1.80;;;4.30;99.90;;;;;;2206741;26;20672;-73
2024/04/10 01:49:40;;;;;;;2.13;1.20;;;4.30;99.90;;;;;;2213630;26;20271;-72
2024/04/10 01:50:42;;;;;;;3.87;1.50;;;4.40;99.90;;;;;;2185692;26;20269;-72
2024/04/10 01:51:43;;;;;;;3.88;1.40;;;4.50;99.90;;;;;;2195981;26;20288;-73
2024/04/10 01:52:43;;;;;;;4.13;1.77;;;4.50;99.90;;;;;;2207765;26;20393;-72
2024/04/10 01:53:44;;;;;;;3.63;1.57;;;4.50;99.90;;;;;;2200740;26;20401;-72
2024/04/10 01:54:50;;;;;;;4.23;1.80;;;4.60;99.90;;;;;;2208969;26;20295;-72
2024/04/10 01:55:51;;;;;;;4.25;1.25;;;4.70;99.90;;;;;;2206565;26;20272;-73
2024/04/10 01:56:52;;;;;;;3.20;1.45;;;4.70;99.90;;;;;;2220321;26;20313;-73
2024/04/10 01:57:52;;;;;;;4.53;1.80;;;4.50;99.90;;;;;;2208805;26;20611;-72
2024/04/10 01:58:53;;;;;;;2.43;1.10;;;4.50;99.90;;;;;;2205432;26;20271;-72
2024/04/10 01:59:54;;;;;;;6.03;2.70;;;4.50;99.90;;;;;;2221309;26;20279;-72
2024/04/10 02:00:54;;;;;;;2.33;1.20;;;4.50;99.90;;;;;;2218059;26;20776;-73
2024/04/10 02:01:55;;;;;;;1.93;1.33;;;4.40;99.90;;;;;;2209433;26;20265;-73
2024/04/10 02:02:56;;;;;;;3.03;1.37;;;4.40;99.90;;;;;;2217117;26;20262;-72
2024/04/10 02:03:56;;;;;;;4.33;1.40;;;4.50;99.90;;;;;;2200853;26;20873;-72
2024/04/10 02:05:02;;;;;;;4.33;1.37;;;4.60;99.90;;;;;;2196524;26;20300;-72
2024/04/10 02:06:02;;;;;;;3.47;1.58;;;4.60;99.90;;;;;;2182103;26;20302;-72
2024/04/10 02:07:04;;;;;;;4.00;1.40;;;4.60;99.90;;;;;;2203558;26;20242;-72
2024/04/10 02:08:05;;;;;;;5.03;1.40;;;4.60;99.90;;;;;;2204772;26;20353;-72
2024/04/10 02:09:06;;;;;;;2.88;1.30;;;4.70;99.90;;;;;;2195487;26;20275;-72
2024/04/10 02:10:07;;;;;;;4.23;1.47;;;4.70;99.90;;;;;;2205312;26;20724;-72
2024/04/10 02:11:22;;;;;;;1.60;1.30;;;4.70;99.90;;;;;;2225704;26;20238;-72
2024/04/10 02:12:23;;;;;;;1.83;1.20;;;4.80;99.90;;;;;;2221655;26;20304;-72
2024/04/10 02:13:24;;;;;;;4.37;1.30;;;4.70;99.90;;;;;;2223534;26;20625;-72
2024/04/10 02:14:24;;;;;;;2.93;1.20;;;4.70;99.90;;;;;;2206434;26;20317;-72
2024/04/10 02:15:25;;;;;;;2.20;1.40;;;4.70;99.90;;;;;;2203631;26;20309;-72
2024/04/10 02:16:26;;;;;;;2.73;1.43;;;4.80;99.90;;;;;;2206515;26;20278;-72
2024/04/10 02:17:26;;;;;;;2.40;1.30;;;4.80;99.90;;;;;;2191574;26;20387;-72
2024/04/10 02:18:27;;;;;;;5.33;1.50;;;4.80;99.90;;;;;;2200339;26;20364;-72
2024/04/10 02:19:28;;;;;;;9.40;2.10;;;4.80;99.90;;;;;;2215161;26;21342;-71
2024/04/10 02:20:28;;;;;;;3.87;1.40;;;4.70;99.90;;;;;;2203644;26;20313;-72
2024/04/10 02:21:29;;;;;;;2.07;1.13;;;4.80;99.90;;;;;;2191518;26;20302;-73
2024/04/10 02:22:30;;;;;;;3.17;1.40;;;4.70;99.90;;;;;;2189458;26;20811;-72
2024/04/10 02:23:30;;;;;;;3.57;1.67;;;4.70;99.90;;;;;;2192232;26;20752;-72
2024/04/10 02:24:31;;;;;;;4.53;1.33;;;4.70;99.90;;;;;;2200581;26;20267;-72
2024/04/10 02:25:33;;;;;;;2.27;1.40;;;4.70;99.90;;;;;;2227524;26;20368;-72
2024/04/10 02:26:33;;;;;;;2.95;1.83;;;4.70;99.90;;;;;;2228154;26;20370;-72
2024/04/10 02:27:34;;;;;;;3.13;1.40;;;4.80;99.90;;;;;;2198943;26;20353;-72
2024/04/10 02:28:35;;;;;;;2.30;1.10;;;4.70;99.90;;;;;;2191599;26;20808;-73
2024/04/10 02:29:35;;;;;;;3.80;1.70;;;4.70;99.90;;;;;;2205809;26;20377;-72
2024/04/10 02:30:36;;;;;;;3.27;1.23;;;4.70;99.90;;;;;;2205206;26;20271;-72
2024/04/10 02:31:37;;;;;;;4.40;1.53;;;4.70;99.90;;;;;;2192593;26;20267;-72
2024/04/10 02:32:37;;;;;;;2.27;1.53;;;4.70;99.90;;;;;;2176591;26;20628;-72
2024/04/10 02:33:38;;;;;;;2.13;1.60;;;4.80;99.90;;;;;;2175834;26;20319;-72
2024/04/10 02:34:39;;;;;;;2.17;1.10;;;4.80;99.90;;;;;;2214594;26;20356;-72
2024/04/10 02:35:40;;;;;;;2.80;1.20;;;4.80;99.90;;;;;;2220266;26;20269;-72
2024/04/10 02:36:41;;;;;;;6.10;1.30;;;4.80;99.90;;;;;;2199241;26;20267;-72
2024/04/10 02:37:41;;;;;;;1.50;1.17;;;4.80;99.90;;;;;;2208020;26;20784;-72
2024/04/10 02:38:42;;;;;;;4.83;1.37;;;4.70;99.90;;;;;;2210241;26;20306;-72
2024/04/10 02:39:43;;;;;;;2.17;1.43;;;4.70;99.90;;;;;;2205773;26;20755;-72
2024/04/10 02:40:43;;;;;;;3.47;1.47;;;4.80;99.90;;;;;;2197909;26;20282;-72
2024/04/10 02:41:44;;;;;;;2.90;1.20;;;4.80;99.90;;;;;;2226562;26;20744;-72
2024/04/10 02:42:57;;;;;;;3.47;1.00;;;4.80;99.90;;;;;;2200238;26;20266;-73
2024/04/10 02:43:57;;;;;;;3.85;2.28;;;4.70;99.90;;;;;;2205051;26;20306;-72
2024/04/10 02:44:58;;;;;;;3.20;1.40;;;4.70;99.90;;;;;;2210119;26;20325;-72
2024/04/10 02:46:01;;;;;;;5.13;1.80;;;4.60;99.90;;;;;;2212641;26;20287;-72
2024/04/10 02:47:02;;;;;;;3.92;1.33;;;4.60;99.90;;;;;;2210550;26;20245;-72
2024/04/10 02:48:03;;;;;;;4.73;1.43;;;4.60;99.90;;;;;;2200920;26;20277;-72
2024/04/10 02:49:04;;;;;;;5.53;1.30;;;4.40;99.90;;;;;;2224892;26;20229;-72
2024/04/10 02:50:04;;;;;;;2.87;1.67;;;4.30;99.90;;;;;;2220733;26;20234;-72
2024/04/10 02:51:06;;;;;;;4.20;1.33;;;4.30;99.90;;;;;;2221985;26;20320;-72
2024/04/10 02:52:06;;;;;;;5.93;1.27;;;4.30;99.90;;;;;;2209154;26;20235;-72
2024/04/10 02:53:07;;;;;;;4.07;1.20;;;4.30;99.90;;;;;;2199406;26;20239;-72
2024/04/10 02:54:08;;;;;;;2.63;1.10;;;4.40;99.90;;;;;;2221093;26;20289;-72
2024/04/10 02:55:09;;;;;;;2.63;1.15;;;4.40;99.90;;;;;;2212948;26;20242;-72
2024/04/10 02:56:10;;;;;;;4.57;1.50;;;4.30;99.90;;;;;;2186174;26;20252;-72
2024/04/10 02:57:10;;;;;;;5.07;1.73;;;4.40;99.90;;;;;;2186084;26;20232;-72
2024/04/10 02:58:12;;;;;;;4.53;1.33;;;4.30;99.90;;;;;;2193187;26;20375;-72
2024/04/10 02:59:13;;;;;;;3.13;1.30;;;4.30;99.90;;;;;;2199141;26;20385;-72
2024/04/10 03:00:14;;;;;;;5.57;1.40;;;4.30;99.90;;;;;;2198374;26;20348;-72
2024/04/10 03:01:15;;;;;;;6.00;1.30;;;4.30;99.90;;;;;;2199335;26;20351;-73
2024/04/10 03:02:15;;;;;;;4.50;1.63;;;4.30;99.90;;;;;;2226695;26;20347;-72
2024/04/10 03:03:18;;;;;;;4.07;1.30;;;4.30;99.90;;;;;;2226660;26;20269;-73
2024/04/10 03:04:19;;;;;;;2.33;1.58;;;4.40;99.90;;;;;;2201693;26;20231;-73
2024/04/10 03:05:19;;;;;;;5.00;1.87;;;4.30;99.90;;;;;;2204020;26;20235;-73
2024/04/10 03:06:20;;;;;;;4.93;1.20;;;4.30;99.90;;;;;;2214901;26;20243;-72
2024/04/10 03:07:21;;;;;;;2.83;1.20;;;4.30;99.90;;;;;;2213432;26;20341;-73
2024/04/10 03:08:21;;;;;;;7.40;1.50;;;4.30;99.90;;;;;;2206063;26;20302;-72
2024/04/10 03:09:22;;;;;;;3.57;1.07;;;4.20;99.90;;;;;;2211405;26;20718;-73
2024/04/10 03:10:23;;;;;;;3.80;1.20;;;4.20;99.90;;;;;;2223942;26;20311;-73
2024/04/10 03:11:23;;;;;;;4.37;1.33;;;4.20;99.90;;;;;;2211124;26;20305;-73
2024/04/10 03:12:26;;;;;;;4.53;1.47;;;4.20;99.90;;;;;;2202746;26;20333;-73
2024/04/10 03:13:27;;;;;;;3.65;1.17;;;4.20;99.90;;;;;;2207684;26;20267;-73
2024/04/10 03:14:31;;;;;;;2.53;1.33;;;4.10;99.90;;;;;;2198114;26;20272;-73
2024/04/10 03:15:32;;;;;;;6.07;1.73;;;4.10;99.90;;;;;;2212814;26;20306;-72
2024/04/10 03:16:33;;;;;;;3.35;1.15;;;4.00;99.90;;;;;;2211976;26;20345;-73
2024/04/10 03:17:33;;;;;;;3.27;1.10;;;4.00;99.90;;;;;;2185438;26;20307;-72
2024/04/10 03:18:34;;;;;;;3.73;1.50;;;4.00;99.90;;;;;;2188043;26;20353;-73
2024/04/10 03:19:35;;;;;;;3.97;1.20;;;4.10;99.90;;;;;;2201474;26;20759;-73
2024/04/10 03:20:36;;;;;;;4.50;1.30;;;4.10;99.90;;;;;;2196850;26;20271;-73
2024/04/10 03:21:37;;;;;;;2.38;1.30;;;4.20;99.90;;;;;;2185070;26;20268;-72
2024/04/10 03:22:37;;;;;;;3.33;1.93;;;4.20;99.90;;;;;;2185353;26;20374;-72
2024/04/10 03:23:38;;;;;;;2.97;1.40;;;4.20;99.90;;;;;;2215769;26;20274;-72
2024/04/10 03:24:38;;;;;;;3.37;1.33;;;4.20;99.90;;;;;;2207635;26;20313;-73
2024/04/10 03:25:39;;;;;;;3.10;1.13;;;4.20;99.90;;;;;;2193466;26;20670;-72
2024/04/10 03:26:40;;;;;;;4.87;1.57;;;4.20;99.90;;;;;;2212334;26;20336;-72
2024/04/10 03:27:42;;;;;;;5.40;1.33;;;4.30;99.90;;;;;;2212953;26;20262;-72
2024/04/10 03:28:42;;;;;;;5.53;1.67;;;4.30;99.90;;;;;;2185468;26;20965;-72
2024/04/10 03:29:43;;;;;;;3.73;1.47;;;4.30;99.90;;;;;;2186354;26;20279;-72
2024/04/10 03:30:51;;;;;;;6.03;1.47;;;4.30;99.90;;;;;;2191252;26;20279;-72
2024/04/10 03:31:53;;;;;;;6.22;1.77;;;4.40;99.90;;;;;;2203128;26;20270;-72
2024/04/10 03:32:54;;;;;;;4.40;1.70;;;4.40;99.90;;;;;;2206052;26;20355;-72
2024/04/10 03:33:55;;;;;;;1.93;1.10;;;4.40;99.90;;;;;;2227634;26;20388;-72
2024/04/10 03:34:56;;;;;;;5.20;1.80;;;4.40;99.90;;;;;;2220354;26;20350;-72
2024/04/10 03:35:56;;;;;;;6.83;1.67;;;4.40;99.90;;;;;;2212749;26;20305;-72
2024/04/10 03:36:57;;;;;;;4.93;1.83;;;4.50;99.90;;;;;;2218461;26;20777;-72
2024/04/10 03:37:58;;;;;;;4.63;1.57;;;4.50;99.90;;;;;;2212168;26;20317;-72
2024/04/10 03:38:58;;;;;;;8.20;1.80;;;4.50;99.90;;;;;;2219991;26;20266;-72
2024/04/10 03:39:59;;;;;;;5.83;1.57;;;4.60;99.90;;;;;;2191229;26;20271;-73
2024/04/10 03:41:00;;;;;;;3.60;2.00;;;4.60;99.90;;;;;;2199974;26;20667;-73
2024/04/10 03:42:00;;;;;;;4.47;1.20;;;4.60;99.90;;;;;;2213832;26;20297;-72
2024/04/10 03:43:01;;;;;;;3.87;1.10;;;4.50;99.90;;;;;;2195943;26;20239;-72
2024/04/10 03:44:04;;;;;;;4.00;1.50;;;4.50;99.90;;;;;;2184896;26;20733;-73
2024/04/10 03:45:05;;;;;;;3.58;1.30;;;4.50;99.90;;;;;;2206554;26;20268;-73
2024/04/10 03:46:07;;;;;;;2.28;1.65;;;4.40;99.90;;;;;;2227521;26;20232;-72
2024/04/10 03:47:08;;;;;;;2.17;1.10;;;4.40;99.90;;;;;;2225289;26;20300;-73
2024/04/10 03:48:09;;;;;;;3.60;1.23;;;4.40;99.90;;;;;;2209016;26;20245;-72
2024/04/10 03:49:10;;;;;;;8.27;1.50;;;4.40;99.90;;;;;;2202296;26;20239;-72
2024/04/10 03:50:10;;;;;;;3.50;1.85;;;4.50;99.90;;;;;;2198551;26;20236;-72
2024/04/10 03:51:12;;;;;;;3.90;2.17;;;4.50;99.90;;;;;;2198429;26;20236;-72
2024/04/10 03:52:13;;;;;;;5.47;1.30;;;4.50;99.90;;;;;;2222424;26;20343;-72
2024/04/10 03:53:14;;;;;;;8.50;3.10;;;4.50;99.90;;;;;;2222606;26;20354;-72
2024/04/10 03:54:15;;;;;;;3.03;1.50;;;4.50;99.90;;;;;;2221688;26;20726;-72
2024/04/10 03:55:16;;;;;;;4.18;1.52;;;4.50;99.90;;;;;;2207582;26;20270;-72
2024/04/10 03:56:16;;;;;;;3.50;1.27;;;4.50;99.90;;;;;;2199180;26;20236;-73
2024/04/10 03:57:17;;;;;;;4.17;1.40;;;4.40;99.90;;;;;;2226290;26;20728;-72
2024/04/10 03:58:18;;;;;;;3.80;1.20;;;4.50;99.90;;;;;;2215540;26;20288;-72
2024/04/10 03:59:21;;;;;;;1.93;1.40;;;4.50;99.90;;;;;;2214510;26;20875;-72
2024/04/10 04:00:22;;;;;;;7.00;1.70;;;4.60;99.90;;;;;;2211294;26;20270;-73
2024/04/10 04:01:23;;;;;;;3.43;1.40;;;4.60;99.90;;;;;;2200967;26;20301;-72
2024/04/10 04:02:25;;;;;;;3.10;1.60;;;4.50;99.90;;;;;;2206840;26;20267;-72
2024/04/10 04:03:26;;;;;;;3.83;1.48;;;4.40;99.90;;;;;;2212746;26;20270;-72
2024/04/10 04:04:26;;;;;;;2.07;1.37;;;4.30;99.90;;;;;;2224408;26;20273;-72
2024/04/10 04:05:27;;;;;;;2.90;1.50;;;4.20;99.90;;;;;;2212242;26;20335;-72
2024/04/10 04:06:28;;;;;;;5.73;1.60;;;4.20;99.90;;;;;;2214556;26;20380;-72
2024/04/10 04:07:28;;;;;;;3.90;1.60;;;4.20;99.90;;;;;;2198206;26;20322;-73
2024/04/10 04:08:29;;;;;;;3.73;1.60;;;4.10;99.90;;;;;;2204198;26;20270;-72
2024/04/10 04:09:31;;;;;;;4.32;1.30;;;4.10;99.90;;;;;;2204773;26;20345;-73
2024/04/10 04:10:31;;;;;;;4.00;1.80;;;4.10;99.90;;;;;;2196336;26;20272;-72
2024/04/10 04:11:32;;;;;;;4.37;1.97;;;4.10;99.90;;;;;;2198726;26;20374;-72
2024/04/10 04:12:33;;;;;;;4.90;2.00;;;4.20;99.90;;;;;;2196653;26;20751;-72
2024/04/10 04:13:33;;;;;;;4.97;2.00;;;4.20;99.90;;;;;;2197569;26;20309;-72
2024/04/10 04:14:34;;;;;;;4.40;1.60;;;4.20;99.90;;;;;;2192460;26;20264;-72
2024/04/10 04:15:35;;;;;;;5.73;2.20;;;4.20;99.90;;;;;;2199656;26;20272;-72
2024/04/10 04:16:35;;;;;;;4.43;1.50;;;4.20;99.90;;;;;;2211681;26;20258;-72
2024/04/10 04:17:36;;;;;;;3.63;1.83;;;4.30;99.90;;;;;;2208106;26;20316;-72
2024/04/10 04:18:37;;;;;;;4.90;1.87;;;4.30;99.90;;;;;;2211568;26;20278;-72
2024/04/10 04:19:37;;;;;;;5.23;1.50;;;4.30;99.90;;;;;;2222977;26;20785;-72
2024/04/10 04:20:38;;;;;;;5.23;2.43;;;4.30;99.90;;;;;;2224388;26;20265;-72
2024/04/10 04:21:39;;;;;;;4.97;1.40;;;4.30;99.90;;;;;;2205861;26;20263;-73
2024/04/10 04:22:39;;;;;;;7.20;2.17;;;4.40;99.90;;;;;;2195356;26;20315;-72
2024/04/10 04:23:42;;;;;;;3.13;1.53;;;4.50;99.90;;;;;;2205348;26;20797;-71
2024/04/10 04:24:42;;;;;;;4.53;2.03;;;4.50;99.90;;;;;;2205016;26;20301;-72
2024/04/10 04:25:43;;;;;;;2.33;1.67;;;4.60;99.90;;;;;;2217808;26;20273;-72
2024/04/10 04:26:44;;;;;;;6.57;2.00;;;4.60;99.90;;;;;;2199139;26;20271;-72
2024/04/10 04:27:45;;;;;;;4.85;1.88;;;4.70;99.90;;;;;;2208524;26;20313;-72
2024/04/10 04:28:46;;;;;;;4.87;2.63;;;4.70;99.90;;;;;;2219037;26;20634;-72
2024/04/10 04:29:47;;;;;;;5.45;1.45;;;4.80;99.90;;;;;;2200498;26;20284;-72
2024/04/10 04:30:48;;;;;;;3.77;1.87;;;4.80;99.90;;;;;;2215316;26;20473;-72
2024/04/10 04:31:50;;;;;;;6.18;1.50;;;4.80;99.90;;;;;;2227756;26;20312;-72
2024/04/10 04:32:50;;;;;;;4.68;1.70;;;4.80;99.90;;;;;;2226875;26;20270;-72
2024/04/10 04:33:54;;;;;;;4.13;1.67;;;4.70;99.90;;;;;;2215180;26;20317;-72
2024/04/10 04:34:54;;;;;;;3.97;1.83;;;4.70;99.90;;;;;;2214899;26;20313;-72
2024/04/10 04:35:55;;;;;;;5.13;1.40;;;4.70;99.90;;;;;;2208622;26;20317;-73
2024/04/10 04:36:56;;;;;;;2.30;1.20;;;4.70;99.90;;;;;;2184799;26;20363;-72
2024/04/10 04:37:57;;;;;;;4.40;1.43;;;4.70;99.90;;;;;;2196235;26;20268;-73
2024/04/10 04:38:58;;;;;;;4.65;1.70;;;4.70;99.90;;;;;;2215258;26;20274;-73
2024/04/10 04:39:59;;;;;;;6.00;2.07;;;4.70;99.90;;;;;;2212445;26;20325;-74
2024/04/10 04:41:00;;;;;;;5.63;1.90;;;4.80;99.90;;;;;;2207739;26;20272;-73
2024/04/10 04:42:01;;;;;;;6.63;2.00;;;4.80;99.90;;;;;;2212976;26;20794;-73
2024/04/10 04:43:08;;;;;;;6.70;1.93;;;4.80;99.90;;;;;;2224365;26;20248;-73
2024/04/10 04:44:08;;;;;;;6.00;2.42;;;4.80;99.90;;;;;;2210779;26;20650;-73
2024/04/10 04:45:09;;;;;;;3.27;1.60;;;4.80;99.90;;;;;;2197464;26;20232;-72
2024/04/10 04:46:16;;;;;;;2.83;1.57;;;4.80;99.90;;;;;;2205297;26;20241;-72
2024/04/10 04:47:17;;;;;;;3.55;1.75;;;4.70;99.90;;;;;;2229056;26;20583;-71
2024/04/10 04:48:18;;;;;;;3.93;1.57;;;4.60;99.90;;;;;;2232104;26;20307;-73
2024/04/10 04:49:18;;;;;;;3.87;1.93;;;4.60;99.90;;;;;;2213434;26;20362;-73
2024/04/10 04:50:19;;;;;;;4.83;1.50;;;4.50;99.90;;;;;;2203606;26;20285;-73
2024/04/10 04:51:20;;;;;;;5.57;1.60;;;4.40;99.90;;;;;;2218286;26;20233;-73
2024/04/10 04:52:20;;;;;;;6.60;2.10;;;4.30;99.90;;;;;;2230858;26;20350;-73
2024/04/10 04:53:21;;;;;;;7.30;2.00;;;4.30;99.90;;;;;;2230203;26;20266;-73
2024/04/10 04:54:22;;;;;;;4.87;1.90;;;4.10;99.90;;;;;;2206967;26;20357;-73
2024/04/10 04:55:22;;;;;;;2.90;2.00;;;4.10;99.90;;;;;;2190869;26;20764;-73
2024/04/10 04:56:23;;;;;;;6.30;1.87;;;4.00;99.90;;;;;;2204887;26;20274;-73
2024/04/10 04:57:24;;;;;;;4.77;1.87;;;4.00;99.90;;;;;;2205269;26;20263;-73
2024/04/10 04:58:24;;;;;;;3.57;1.50;;;4.10;99.90;;;;;;2206139;26;20270;-73
2024/04/10 04:59:25;;;;;;;6.67;2.17;;;4.10;99.90;;;;;;2219032;26;20659;-74
2024/04/10 05:00:26;;;;;;;4.30;1.57;;;4.00;99.90;;;;;;2219106;26;20336;-73
2024/04/10 05:01:27;;;;;;;4.23;1.73;;;3.90;99.90;;;;;;2190684;26;20814;-72
2024/04/10 05:02:28;;;;;;;6.35;1.60;;;4.00;99.90;;;;;;2190288;26;20278;-73
2024/04/10 05:05:02;;;;;;;7.60;2.70;;;4.00;99.90;;;;;;2212993;26;20262;-73
2024/04/10 05:06:08;;;;;;;4.85;1.75;;;4.10;99.90;;;;;;2186852;26;20770;-73
2024/04/10 05:07:10;;;;;;;3.83;1.98;;;4.10;99.90;;;;;;2198348;26;20303;-74
2024/04/10 05:08:10;;;;;;;3.60;1.98;;;4.10;99.90;;;;;;2191882;26;20353;-73
2024/04/10 05:09:11;;;;;;;4.43;1.83;;;4.10;99.90;;;;;;2192588;26;20263;-73
2024/04/10 05:10:13;;;;;;;2.60;1.57;;;4.20;99.90;;;;;;2207138;26;20633;-73
2024/04/10 05:11:14;;;;;;;9.85;2.22;;;4.20;99.90;;;;;;2207382;26;20285;-73
2024/04/10 05:12:15;;;;;;;6.78;2.47;;;4.20;99.90;;;;;;2205901;26;20289;-74
2024/04/10 05:13:15;;;;;;;4.40;1.97;;;4.30;99.90;;;;;;2192247;26;20653;-72
2024/04/10 05:14:16;;;;;;;8.10;2.63;;;4.30;99.90;;;;;;2192856;26;20244;-73
2024/04/10 05:15:17;;;;;;;8.23;2.23;;;4.30;99.90;;;;;;2232103;26;20229;-73
2024/04/10 05:16:17;;;;;;;5.33;1.80;;;4.40;99.90;;;;;;2208236;26;20759;-73
2024/04/10 05:17:19;;;;;;;7.90;1.77;;;4.40;99.90;;;;;;2170664;26;20248;-72
2024/04/10 05:18:19;;;;;;;5.45;2.83;;;4.40;99.90;;;;;;2170684;26;20253;-73
2024/04/10 05:19:20;;;;;;;9.87;4.83;;;4.40;99.90;;;;;;2184680;26;20256;-73
2024/04/10 05:20:21;;;;;;;9.17;4.70;;;4.40;99.90;;;;;;2205434;26;20294;-72
2024/04/10 05:21:22;;;;;;;11.93;5.07;;;4.50;99.90;;;;;;2205076;26;20295;-73
2024/04/10 05:22:23;;;;;;;10.45;5.32;;;4.40;99.90;;;;;;2203302;26;20415;-73
2024/04/10 05:23:24;;;;;;;11.07;4.50;;;4.50;99.90;;;;;;2206516;26;20318;-73
2024/04/10 05:24:24;;;;;;;7.40;4.37;;;4.50;99.90;;;;;;2192130;26;20306;-73